createdAt,value
2023-01-10T00:01:18.026Z,100325.13
2023-01-10T00:03:50.519Z,100329.66
2023-01-10T00:06:25.065Z,100334.97
2023-01-10T00:08:57.754Z,100330.34
2023-01-10T00:11:42.747Z,100345.94
2023-01-10T00:14:15.526Z,100341.91
2023-01-10T00:16:47.429Z,100348.91
2023-01-10T00:19:19.907Z,100351.47
2023-01-10T00:22:11.308Z,100358.09
2023-01-10T00:24:44.765Z,100360.69
2023-01-10T00:27:23.783Z,100358.25
2023-01-10T00:29:56.879Z,100358.09
2023-01-10T00:32:31.489Z,100355.75
2023-01-10T00:35:07.764Z,100361.50
2023-01-10T00:37:43.471Z,100361.91
2023-01-10T00:40:16.894Z,100361.00
2023-01-10T00:43:01.082Z,100362.09
2023-01-10T00:45:33.614Z,100361.72
2023-01-10T00:48:11.348Z,100373.69
2023-01-10T00:50:44.221Z,100372.34
2023-01-10T00:53:23.810Z,100382.06
2023-01-10T00:55:57.218Z,100389.56
2023-01-10T00:58:28.969Z,100386.97
2023-01-10T01:01:01.492Z,100380.88
2023-01-10T01:03:33.530Z,100391.56
2023-01-10T01:06:09.146Z,100392.81
2023-01-10T01:08:58.427Z,100398.84
2023-01-10T01:11:31.068Z,100397.69
2023-01-10T01:14:02.846Z,100407.44
2023-01-10T01:16:35.147Z,100416.91
2023-01-10T01:19:07.127Z,100423.16
2023-01-10T01:21:39.647Z,100428.31
2023-01-10T01:24:14.791Z,100423.47
2023-01-10T01:26:47.208Z,100435.88
2023-01-10T01:29:29.999Z,100440.13
2023-01-10T01:32:08.504Z,100439.53
2023-01-10T01:34:40.600Z,100451.00
2023-01-10T01:37:12.847Z,100460.59
2023-01-10T01:39:47.346Z,100469.66
2023-01-10T01:42:28.984Z,100473.56
2023-01-10T01:45:39.226Z,100476.94
2023-01-10T01:48:27.186Z,100483.03
2023-01-10T01:51:08.467Z,100494.97
2023-01-10T01:53:46.867Z,100492.16
2023-01-10T01:56:29.386Z,100493.81
2023-01-10T01:59:06.187Z,100491.56
2023-01-10T02:01:41.071Z,100496.22
2023-01-10T02:04:18.308Z,100493.03
2023-01-10T02:06:56.768Z,100503.16
2023-01-10T02:09:36.291Z,100505.22
2023-01-10T02:12:14.529Z,100501.94
2023-01-10T02:15:09.345Z,100509.50
2023-01-10T02:17:56.811Z,100510.94
2023-01-10T02:20:31.415Z,100517.28
2023-01-10T02:23:45.977Z,100523.88
2023-01-10T02:26:42.893Z,100519.03
2023-01-10T02:29:47.136Z,100520.13
2023-01-10T02:32:47.809Z,100524.22
2023-01-10T02:35:35.624Z,100535.19
2023-01-10T02:38:17.366Z,100534.16
2023-01-10T02:40:58.888Z,100531.69
2023-01-10T02:43:38.046Z,100550.22
2023-01-10T02:46:14.705Z,100545.56
2023-01-10T02:48:49.824Z,100547.75
2023-01-10T02:51:24.549Z,100550.97
2023-01-10T02:54:01.888Z,100558.22
2023-01-10T02:56:54.385Z,100555.59
2023-01-10T02:59:49.715Z,100564.81
2023-01-10T03:02:45.607Z,100563.47
2023-01-10T03:05:39.431Z,100567.97
2023-01-10T03:08:21.865Z,100580.44
2023-01-10T03:11:00.302Z,100579.63
2023-01-10T03:13:38.312Z,100589.59
2023-01-10T03:16:14.024Z,100594.72
2023-01-10T03:18:49.726Z,100607.56
2023-01-10T03:21:27.247Z,100603.72
2023-01-10T03:24:05.475Z,100616.88
2023-01-10T03:26:46.127Z,100619.97
2023-01-10T03:29:23.829Z,100618.72
2023-01-10T03:31:59.727Z,100625.22
2023-01-10T03:34:31.908Z,100642.06
2023-01-10T03:37:16.849Z,100646.91
2023-01-10T03:39:57.603Z,100644.47
2023-01-10T03:42:58.007Z,100655.50
2023-01-10T03:45:34.305Z,100665.91
2023-01-10T03:48:11.850Z,100671.25
2023-01-10T03:50:44.744Z,100670.25
2023-01-10T03:53:20.567Z,100674.50
2023-01-10T03:55:52.668Z,100679.91
2023-01-10T03:58:25.087Z,100679.97
2023-01-10T04:00:57.200Z,100685.03
2023-01-10T04:03:29.798Z,100688.75
2023-01-10T04:06:01.992Z,100696.88
2023-01-10T04:08:37.381Z,100697.53
2023-01-10T04:11:09.609Z,100709.06
2023-01-10T04:13:42.949Z,100711.28
2023-01-10T04:16:18.313Z,100717.28
2023-01-10T04:18:53.835Z,100728.13
2023-01-10T04:21:33.381Z,100738.81
2023-01-10T04:24:08.796Z,100735.88
2023-01-10T04:26:44.075Z,100746.16
2023-01-10T04:29:20.815Z,100746.28
2023-01-10T04:31:52.739Z,100763.31
2023-01-10T04:34:25.111Z,100757.19
2023-01-10T04:36:57.229Z,100762.19
2023-01-10T04:39:32.228Z,100773.00
2023-01-10T04:42:04.123Z,100773.03
2023-01-10T04:44:36.427Z,100775.41
2023-01-10T04:47:08.506Z,100777.06
2023-01-10T04:49:40.989Z,100786.09
2023-01-10T04:52:14.194Z,100785.53
2023-01-10T04:54:49.192Z,100800.81
2023-01-10T04:57:21.037Z,100806.56
2023-01-10T04:59:54.388Z,100821.28
2023-01-10T05:02:26.375Z,100814.88
2023-01-10T05:04:58.887Z,100838.72
2023-01-10T05:07:30.950Z,100832.22
2023-01-10T05:10:05.936Z,100836.19
2023-01-10T05:12:38.095Z,100830.78
2023-01-10T05:15:13.287Z,100846.09
2023-01-10T05:17:45.122Z,100851.88
2023-01-10T05:20:17.548Z,100860.16
2023-01-10T05:22:49.732Z,100872.50
2023-01-10T05:25:24.591Z,100870.41
2023-01-10T05:27:56.604Z,100877.97
2023-01-10T05:30:28.825Z,100877.00
2023-01-10T05:33:00.786Z,100878.09
2023-01-10T05:35:33.109Z,100884.75
2023-01-10T05:38:05.296Z,100888.06
2023-01-10T05:40:40.210Z,100904.00
2023-01-10T05:43:12.329Z,100895.53
2023-01-10T05:45:46.334Z,100906.63
2023-01-10T05:48:18.328Z,100915.72
2023-01-10T05:50:53.059Z,100909.50
2023-01-10T05:53:24.884Z,100911.72
2023-01-10T05:56:02.404Z,100921.34
2023-01-10T05:58:34.516Z,100926.47
2023-01-10T06:01:06.966Z,100937.28
2023-01-10T06:03:39.043Z,100942.72
2023-01-10T06:06:11.831Z,100942.47
2023-01-10T06:08:43.666Z,100946.09
2023-01-10T06:11:18.608Z,100955.69
2023-01-10T06:13:54.115Z,100960.50
2023-01-10T06:16:26.574Z,100967.63
2023-01-10T06:18:58.630Z,100979.84
2023-01-10T06:21:31.148Z,100984.09
2023-01-10T06:24:03.327Z,100985.41
2023-01-10T06:26:38.902Z,100981.03
2023-01-10T06:29:11.397Z,100986.50
2023-01-10T06:31:44.013Z,100994.50
2023-01-10T06:34:16.357Z,101000.72
2023-01-10T06:36:48.924Z,101004.44
2023-01-10T06:39:21.167Z,101013.81
2023-01-10T06:41:56.652Z,101016.41
2023-01-10T06:44:28.785Z,101019.50
2023-01-10T06:47:01.607Z,101019.47
2023-01-10T06:49:33.886Z,101022.72
2023-01-10T06:52:07.166Z,101034.03
2023-01-10T06:54:39.552Z,101046.25
2023-01-10T06:57:14.993Z,101051.34
2023-01-10T06:59:47.211Z,101054.88
2023-01-10T07:02:20.497Z,101057.38
2023-01-10T07:04:52.856Z,101053.19
2023-01-10T07:07:25.387Z,101064.16
2023-01-10T07:09:57.493Z,101067.56
2023-01-10T07:12:32.855Z,101067.41
2023-01-10T07:15:05.127Z,101075.59
2023-01-10T07:17:37.772Z,101072.91
2023-01-10T07:20:11.653Z,101083.63
2023-01-10T07:22:44.384Z,101084.13
2023-01-10T07:25:16.406Z,101087.22
2023-01-10T07:27:51.707Z,101094.44
2023-01-10T07:30:27.895Z,101101.44
2023-01-10T07:33:04.173Z,101100.53
2023-01-10T07:35:36.608Z,101108.22
2023-01-10T07:38:09.584Z,101109.97
2023-01-10T07:40:41.705Z,101116.34
2023-01-10T07:43:17.229Z,101135.63
2023-01-10T07:45:49.594Z,101139.88
2023-01-10T07:48:22.265Z,101140.19
2023-01-10T07:50:58.650Z,101146.22
2023-01-10T07:53:32.407Z,101152.56
2023-01-10T07:56:05.828Z,101164.75
2023-01-10T07:58:42.364Z,101168.75
2023-01-10T08:01:14.852Z,101168.47
2023-01-10T08:03:47.683Z,101172.31
2023-01-10T08:06:20.245Z,101173.94
2023-01-10T08:08:53.239Z,101174.50
2023-01-10T08:11:25.624Z,101175.31
2023-01-10T08:14:01.069Z,101177.25
2023-01-10T08:16:33.710Z,101179.03
2023-01-10T08:19:06.547Z,101191.84
2023-01-10T08:21:40.832Z,101203.94
2023-01-10T08:24:13.828Z,101205.88
2023-01-10T08:26:45.920Z,101220.13
2023-01-10T08:29:21.591Z,101220.91
2023-01-10T08:31:53.790Z,101219.47
2023-01-10T08:34:26.564Z,101221.91
2023-01-10T08:36:58.946Z,101220.00
2023-01-10T08:39:35.797Z,101224.53
2023-01-10T08:42:08.399Z,101217.53
2023-01-10T08:44:43.999Z,101236.47
2023-01-10T08:47:16.415Z,101232.06
2023-01-10T08:49:50.364Z,101237.88
2023-01-10T08:52:22.521Z,101230.97
2023-01-10T08:54:55.118Z,101235.91
2023-01-10T08:57:27.279Z,101241.16
2023-01-10T09:00:02.447Z,101248.75
2023-01-10T09:02:34.844Z,101258.72
2023-01-10T09:05:15.058Z,101259.41
2023-01-10T09:07:54.058Z,101271.72
2023-01-10T09:10:27.042Z,101268.25
2023-01-10T09:13:02.185Z,101272.81
2023-01-10T09:15:39.849Z,101282.03
2023-01-10T09:18:14.905Z,101286.41
2023-01-10T09:20:47.779Z,101291.63
2023-01-10T09:23:22.408Z,101284.06
2023-01-10T09:26:04.045Z,101287.75
2023-01-10T09:28:36.540Z,101283.72
2023-01-10T09:31:12.544Z,101298.78
2023-01-10T09:33:47.103Z,101294.66
2023-01-10T09:36:20.317Z,101295.72
2023-01-10T09:38:52.478Z,101294.66
2023-01-10T09:41:51.533Z,101294.22
2023-01-10T09:44:30.918Z,101299.38
2023-01-10T09:47:22.407Z,101307.91
2023-01-10T09:50:09.402Z,101310.28
2023-01-10T09:52:45.631Z,101323.00
2023-01-10T09:55:33.060Z,101320.03
2023-01-10T09:58:10.873Z,101320.25
2023-01-10T10:00:47.791Z,101313.31
2023-01-10T10:03:33.796Z,101318.06
2023-01-10T10:06:12.108Z,101312.69
2023-01-10T10:08:47.071Z,101320.81
2023-01-10T10:11:40.526Z,101321.13
2023-01-10T10:14:28.512Z,101314.63
2023-01-10T10:17:16.356Z,101321.59
2023-01-10T10:20:04.192Z,101310.00
2023-01-10T10:22:47.955Z,101319.88
2023-01-10T10:25:49.512Z,101318.22
2023-01-10T10:28:53.620Z,101317.53
2023-01-10T10:31:44.489Z,101317.16
2023-01-10T10:34:24.081Z,101320.91
2023-01-10T10:37:06.116Z,101335.47
2023-01-10T10:39:42.031Z,101339.69
2023-01-10T10:42:18.442Z,101345.31
2023-01-10T10:44:57.525Z,101340.94
2023-01-10T10:47:34.436Z,101338.66
2023-01-10T10:50:21.887Z,101343.75
2023-01-10T10:52:57.272Z,101342.94
2023-01-10T10:55:35.325Z,101344.19
2023-01-10T10:58:11.032Z,101355.22
2023-01-10T11:00:45.233Z,101367.47
2023-01-10T11:03:30.759Z,101370.84
2023-01-10T11:06:04.282Z,101370.31
2023-01-10T11:08:44.436Z,101370.47
2023-01-10T11:11:24.125Z,101372.75
2023-01-10T11:13:59.388Z,101364.25
2023-01-10T11:16:34.596Z,101353.91
2023-01-10T11:19:20.751Z,101341.63
2023-01-10T11:21:59.995Z,101338.84
2023-01-10T11:24:38.292Z,101336.69
2023-01-10T11:27:22.043Z,101339.50
2023-01-10T11:30:04.232Z,101351.66
2023-01-10T11:32:40.911Z,101355.91
2023-01-10T11:35:24.143Z,101355.63
2023-01-10T11:38:03.877Z,101353.94
2023-01-10T11:40:41.073Z,101350.75
2023-01-10T11:43:28.991Z,101349.38
2023-01-10T11:46:05.830Z,101376.44
2023-01-10T11:49:07.753Z,101372.34
2023-01-10T11:51:44.196Z,101380.69
2023-01-10T11:54:23.473Z,101368.03
2023-01-10T11:57:05.879Z,101376.47
2023-01-10T11:59:39.655Z,101385.66
2023-01-10T12:02:22.035Z,101383.84
2023-01-10T12:04:58.175Z,101389.69
2023-01-10T12:07:31.602Z,101376.19
2023-01-10T12:10:06.645Z,101382.53
2023-01-10T12:12:43.255Z,101377.97
2023-01-10T12:15:35.821Z,101377.44
2023-01-10T12:18:10.308Z,101372.06
2023-01-10T12:20:50.170Z,101366.84
2023-01-10T12:23:26.571Z,101365.06
2023-01-10T12:26:11.756Z,101381.81
2023-01-10T12:28:53.371Z,101365.25
2023-01-10T12:31:48.824Z,101371.47
2023-01-10T12:34:27.569Z,101384.31
2023-01-10T12:37:09.412Z,101391.03
2023-01-10T12:39:47.348Z,101389.34
2023-01-10T12:42:45.693Z,101393.59
2023-01-10T12:45:28.371Z,101391.09
2023-01-10T12:48:09.289Z,101392.41
2023-01-10T12:50:47.528Z,101399.50
2023-01-10T12:53:32.514Z,101394.22
2023-01-10T12:56:09.076Z,101409.19
2023-01-10T12:58:47.714Z,101416.94
2023-01-10T13:01:32.480Z,101417.16
2023-01-10T13:04:09.239Z,101421.03
2023-01-10T13:06:46.448Z,101424.19
2023-01-10T13:09:27.561Z,101426.81
2023-01-10T13:12:07.233Z,101430.84
2023-01-10T13:14:44.599Z,101442.44
2023-01-10T13:17:36.073Z,101440.91
2023-01-10T13:20:33.353Z,101440.66
2023-01-10T13:23:18.993Z,101456.16
2023-01-10T13:25:59.958Z,101456.19
2023-01-10T13:28:36.200Z,101456.47
2023-01-10T13:31:12.095Z,101451.38
2023-01-10T13:33:58.871Z,101456.63
2023-01-10T13:36:35.509Z,101467.66
2023-01-10T13:39:12.589Z,101460.97
2023-01-10T13:42:35.352Z,101450.28
2023-01-10T13:45:30.271Z,101458.72
2023-01-10T13:48:08.442Z,101452.06
2023-01-10T13:51:10.086Z,101457.56
2023-01-10T13:53:49.077Z,101446.84
2023-01-10T13:56:38.239Z,101451.66
2023-01-10T13:59:28.993Z,101458.88
2023-01-10T14:02:17.173Z,101457.75
2023-01-10T14:04:53.015Z,101455.63
2023-01-10T14:07:32.276Z,101456.78
2023-01-10T14:10:09.196Z,101457.75
2023-01-10T14:12:51.234Z,101455.50
2023-01-10T14:15:30.235Z,101472.31
2023-01-10T14:18:05.768Z,101468.78
2023-01-10T14:20:39.882Z,101470.16
2023-01-10T14:23:23.836Z,101466.16
2023-01-10T14:25:58.954Z,101467.53
2023-01-10T14:28:35.272Z,101472.69
2023-01-10T14:31:11.722Z,101472.69
2023-01-10T14:33:47.790Z,101476.28
2023-01-10T14:36:26.474Z,101472.28
2023-01-10T14:39:06.839Z,101472.63
2023-01-10T14:41:43.507Z,101467.88
2023-01-10T14:44:22.551Z,101463.66
2023-01-10T14:46:57.794Z,101472.84
2023-01-10T14:49:33.712Z,101467.41
2023-01-10T14:52:20.234Z,101477.78
2023-01-10T14:54:59.114Z,101481.44
2023-01-10T14:57:56.023Z,101475.56
2023-01-10T15:00:31.915Z,101480.88
2023-01-10T15:03:09.633Z,101482.72
2023-01-10T15:05:50.714Z,101479.22
2023-01-10T15:08:25.522Z,101472.94
2023-01-10T15:11:06.329Z,101473.09
2023-01-10T15:13:45.305Z,101465.13
2023-01-10T15:16:23.395Z,101466.66
2023-01-10T15:18:57.045Z,101464.13
2023-01-10T15:21:30.483Z,101471.13
2023-01-10T15:24:02.668Z,101471.31
2023-01-10T15:26:38.096Z,101467.63
2023-01-10T15:29:17.679Z,101474.94
2023-01-10T15:31:50.705Z,101479.34
2023-01-10T15:34:25.912Z,101477.09
2023-01-10T15:37:00.452Z,101470.81
2023-01-10T15:39:34.877Z,101469.31
2023-01-10T15:42:12.485Z,101475.22
2023-01-10T15:44:52.760Z,101475.53
2023-01-10T15:47:45.231Z,101485.78
2023-01-10T15:50:28.903Z,101487.88
2023-01-10T15:53:04.324Z,101488.50
2023-01-10T15:55:44.101Z,101482.88
2023-01-10T15:58:34.808Z,101482.38
2023-01-10T16:01:07.625Z,101482.88
2023-01-10T16:03:43.016Z,101485.13
2023-01-10T16:06:25.514Z,101483.13
2023-01-10T16:09:00.673Z,101490.28
2023-01-10T16:11:54.111Z,101491.34
2023-01-10T16:14:29.716Z,101485.47
2023-01-10T16:17:01.959Z,101480.19
2023-01-10T16:19:35.274Z,101475.78
2023-01-10T16:22:08.273Z,101481.22
2023-01-10T16:24:50.790Z,101472.06
2023-01-10T16:27:22.925Z,101471.72
2023-01-10T16:29:58.347Z,101476.69
2023-01-10T16:32:30.511Z,101468.91
2023-01-10T16:35:04.391Z,101470.63
2023-01-10T16:37:36.788Z,101466.28
2023-01-10T16:40:22.513Z,101467.41
2023-01-10T16:43:06.794Z,101459.91
2023-01-10T16:45:42.749Z,101466.75
2023-01-10T16:48:15.122Z,101472.53
2023-01-10T16:50:49.509Z,101472.34
2023-01-10T16:53:24.558Z,101484.88
2023-01-10T16:55:57.478Z,101484.66
2023-01-10T16:58:29.794Z,101483.06
2023-01-10T17:01:05.561Z,101477.91
2023-01-10T17:03:40.907Z,101481.75
2023-01-10T17:06:15.396Z,101475.66
2023-01-10T17:08:50.015Z,101467.41
2023-01-10T17:11:26.595Z,101475.16
2023-01-10T17:13:59.872Z,101464.41
2023-01-10T17:16:36.104Z,101473.78
2023-01-10T17:19:08.874Z,101473.81
2023-01-10T17:24:40.354Z,101470.34
2023-01-10T17:27:13.349Z,101473.94
2023-01-10T17:29:46.000Z,101464.50
2023-01-10T17:32:21.507Z,101475.50
2023-01-10T17:34:53.829Z,101470.19
2023-01-10T17:37:26.590Z,101479.53
2023-01-10T17:39:59.151Z,101488.69
2023-01-10T17:42:32.189Z,101483.66
2023-01-10T17:45:04.605Z,101485.69
2023-01-10T17:47:40.155Z,101478.75
2023-01-10T17:50:13.282Z,101473.44
2023-01-10T17:52:46.316Z,101471.91
2023-01-10T17:55:18.877Z,101477.19
2023-01-10T17:57:51.545Z,101479.13
2023-01-10T18:00:23.872Z,101475.09
2023-01-10T18:02:59.702Z,101477.50
2023-01-10T18:05:32.722Z,101474.44
2023-01-10T18:08:06.552Z,101470.19
2023-01-10T18:10:39.716Z,101473.41
2023-01-10T18:13:13.749Z,101473.84
2023-01-10T18:15:47.641Z,101475.69
2023-01-10T18:18:26.993Z,101472.56
2023-01-10T18:21:02.549Z,101470.75
2023-01-10T18:23:35.396Z,101466.84
2023-01-10T18:26:09.763Z,101468.97
2023-01-10T18:28:44.756Z,101463.34
2023-01-10T18:31:20.163Z,101464.66
2023-01-10T18:33:57.715Z,101463.91
2023-01-10T18:36:30.151Z,101464.06
2023-01-10T18:39:08.116Z,101458.44
2023-01-10T18:41:40.676Z,101452.03
2023-01-10T18:44:13.713Z,101464.28
2023-01-10T18:46:45.957Z,101464.28
2023-01-10T18:49:21.285Z,101446.53
2023-01-10T18:51:53.712Z,101451.31
2023-01-10T18:54:28.590Z,101444.94
2023-01-10T18:57:01.231Z,101443.56
2023-01-10T18:59:34.070Z,101455.84
2023-01-10T19:02:06.556Z,101453.69
2023-01-10T19:04:42.314Z,101445.88
2023-01-10T19:07:15.201Z,101435.78
2023-01-10T19:09:48.521Z,101450.13
2023-01-10T19:12:20.808Z,101439.16
2023-01-10T19:14:53.831Z,101433.00
2023-01-10T19:17:26.362Z,101434.97
2023-01-10T19:20:02.098Z,101438.66
2023-01-10T19:22:38.953Z,101429.75
2023-01-10T19:25:13.632Z,101427.16
2023-01-10T19:27:45.801Z,101419.75
2023-01-10T19:30:25.121Z,101423.19
2023-01-10T19:33:11.231Z,101426.25
2023-01-10T19:35:46.994Z,101417.00
2023-01-10T19:38:19.991Z,101417.84
2023-01-10T19:40:56.837Z,101411.22
2023-01-10T19:43:29.244Z,101400.13
2023-01-10T19:46:02.572Z,101401.44
2023-01-10T19:48:36.353Z,101407.41
2023-01-10T19:51:14.331Z,101403.97
2023-01-10T19:53:47.603Z,101401.84
2023-01-10T19:56:23.548Z,101409.25
2023-01-10T19:58:58.190Z,101400.03
2023-01-10T20:01:32.802Z,101405.53
2023-01-10T20:04:07.198Z,101402.97
2023-01-10T20:06:44.039Z,101394.25
2023-01-10T20:09:17.193Z,101395.00
2023-01-10T20:11:49.919Z,101384.78
2023-01-10T20:14:25.271Z,101389.75
2023-01-10T20:16:58.200Z,101378.47
2023-01-10T20:19:30.474Z,101374.94
2023-01-10T20:22:06.033Z,101376.41
2023-01-10T20:24:38.394Z,101373.22
2023-01-10T20:27:11.037Z,101378.72
2023-01-10T20:29:46.238Z,101368.53
2023-01-10T20:32:20.154Z,101373.50
2023-01-10T20:34:52.910Z,101363.81
2023-01-10T20:37:28.475Z,101365.63
2023-01-10T20:40:00.836Z,101365.84
2023-01-10T20:42:33.672Z,101356.88
2023-01-10T20:45:05.955Z,101367.81
2023-01-10T20:47:38.912Z,101363.78
2023-01-10T20:50:12.553Z,101358.59
2023-01-10T20:52:48.206Z,101357.84
2023-01-10T20:55:20.912Z,101358.09
2023-01-10T20:57:53.992Z,101354.78
2023-01-10T21:00:26.752Z,101354.56
2023-01-10T21:02:59.930Z,101353.34
2023-01-10T21:05:32.882Z,101350.56
2023-01-10T21:08:08.872Z,101347.75
2023-01-10T21:10:41.192Z,101358.09
2023-01-10T21:13:22.115Z,101350.88
2023-01-10T21:15:58.303Z,101345.06
2023-01-10T21:18:35.872Z,101346.28
2023-01-10T21:21:09.071Z,101342.69
2023-01-10T21:23:45.349Z,101339.72
2023-01-10T21:26:18.600Z,101338.19
2023-01-10T21:28:53.513Z,101338.88
2023-01-10T21:31:25.770Z,101330.28
2023-01-10T21:33:58.711Z,101336.00
2023-01-10T21:36:31.790Z,101327.50
2023-01-10T21:39:07.433Z,101327.09
2023-01-10T21:41:51.960Z,101317.53
2023-01-10T21:44:24.995Z,101311.81
2023-01-10T21:46:57.417Z,101315.56
2023-01-10T21:49:30.355Z,101312.56
2023-01-10T21:52:02.701Z,101305.00
2023-01-10T21:54:38.555Z,101307.47
2023-01-10T21:57:11.191Z,101296.53
2023-01-10T21:59:44.312Z,101291.09
2023-01-10T22:02:16.673Z,101292.28
2023-01-10T22:04:51.112Z,101295.09
2023-01-10T22:07:25.553Z,101282.13
2023-01-10T22:10:01.553Z,101274.69
2023-01-10T22:12:34.432Z,101279.31
2023-01-10T22:15:07.917Z,101272.16
2023-01-10T22:17:40.081Z,101262.09
2023-01-10T22:20:14.797Z,101273.84
2023-01-10T22:22:47.443Z,101277.75
2023-01-10T22:25:23.233Z,101266.47
2023-01-10T22:27:55.591Z,101265.25
2023-01-10T22:30:28.433Z,101261.38
2023-01-10T22:33:00.711Z,101251.19
2023-01-10T22:35:33.511Z,101257.84
2023-01-10T22:38:05.713Z,101252.63
2023-01-10T22:40:43.878Z,101241.94
2023-01-10T22:43:16.716Z,101249.47
2023-01-10T22:45:49.640Z,101239.78
2023-01-10T22:48:24.366Z,101236.63
2023-01-10T22:50:59.832Z,101241.00
2023-01-10T22:53:32.034Z,101246.94
2023-01-10T22:56:11.078Z,101234.06
2023-01-10T22:58:48.190Z,101225.34
2023-01-10T23:01:30.952Z,101231.66
2023-01-10T23:04:17.327Z,101225.34
2023-01-10T23:06:50.731Z,101208.88
2023-01-10T23:09:22.991Z,101207.66
2023-01-10T23:11:58.312Z,101205.34
2023-01-10T23:14:30.711Z,101202.06
2023-01-10T23:17:04.874Z,101210.78
2023-01-10T23:19:36.952Z,101216.00
2023-01-10T23:22:09.798Z,101199.28
2023-01-10T23:24:41.751Z,101200.25
2023-01-10T23:27:18.150Z,101202.06
2023-01-10T23:29:53.473Z,101200.13
2023-01-10T23:32:27.631Z,101194.56
2023-01-10T23:34:59.991Z,101184.47
2023-01-10T23:37:32.633Z,101175.75
2023-01-10T23:40:06.192Z,101181.69
2023-01-10T23:42:42.043Z,101177.00
2023-01-10T23:45:15.801Z,101174.16
2023-01-10T23:47:51.526Z,101159.75
2023-01-10T23:50:23.484Z,101152.72
2023-01-10T23:52:55.994Z,101145.56
2023-01-10T23:55:28.377Z,101144.13
2023-01-10T23:58:03.985Z,101137.56
